Terminal Aerodrome Forecast
Issued by NWS

Home | Current Version | Previous Version | Text Only | Print | Product List | Glossary On
Versions: 1 2 3 4 5 6 7 8 9 10 11 12 13 14
000
FTUS43 KIND 270217 AAB
TAFHUF
TAF AMD
KHUF 270217Z 2702/2724 24010KT P6SM SCT035
     FM271100 14004KT 4SM BR BKN025
     FM271400 12005KT P6SM OVC045
     FM271800 12010KT 4SM -SHRA OVC025=

USA.gov is the U.S. government's official web portal to all federal, state and local government web resources and services.